createdAt,value
2022-10-18T00:01:54.677Z,17.10
2022-10-18T00:04:27.462Z,17.10
2022-10-18T00:06:59.993Z,17.10
2022-10-18T00:09:32.593Z,17.20
2022-10-18T00:12:05.203Z,17.20
2022-10-18T00:14:37.716Z,17.20
2022-10-18T00:17:10.148Z,17.20
2022-10-18T00:19:42.574Z,17.20
2022-10-18T00:22:14.963Z,17.20
2022-10-18T00:24:47.483Z,17.20
2022-10-18T00:27:20.066Z,17.20
2022-10-18T00:29:53.864Z,17.20
2022-10-18T00:32:27.132Z,17.20
2022-10-18T00:34:59.683Z,17.20
2022-10-18T00:37:34.136Z,17.20
2022-10-18T00:40:07.799Z,17.20
2022-10-18T00:42:40.449Z,17.10
2022-10-18T00:45:19.621Z,17.20
2022-10-18T00:47:59.976Z,17.20
2022-10-18T00:50:35.166Z,17.20
2022-10-18T00:53:13.345Z,17.20
2022-10-18T00:55:46.308Z,17.20
2022-10-18T00:58:20.167Z,17.20
2022-10-18T01:00:52.837Z,17.10
2022-10-18T01:03:25.408Z,17.10
2022-10-18T01:05:58.264Z,17.10
2022-10-18T01:08:37.934Z,17.10
2022-10-18T01:11:26.659Z,17.10
2022-10-18T01:14:04.096Z,17.10
2022-10-18T01:16:52.810Z,17.10
2022-10-18T01:19:48.328Z,17.10
2022-10-18T01:22:25.003Z,17.10
2022-10-18T01:25:10.553Z,17.10
2022-10-18T01:28:03.057Z,17.10
2022-10-18T01:30:54.455Z,17.00
2022-10-18T01:33:34.438Z,17.10
2022-10-18T01:36:32.171Z,17.00
2022-10-18T01:39:10.554Z,17.00
2022-10-18T01:41:45.826Z,17.00
2022-10-18T01:44:24.761Z,17.00
2022-10-18T01:46:58.827Z,17.00
2022-10-18T01:49:31.414Z,16.90
2022-10-18T01:52:04.185Z,16.90
2022-10-18T01:54:39.820Z,16.80
2022-10-18T01:57:29.569Z,16.70
2022-10-18T02:00:15.365Z,16.70
2022-10-18T02:02:51.518Z,16.60
2022-10-18T02:05:44.351Z,16.50
2022-10-18T02:08:39.912Z,16.50
2022-10-18T02:11:16.186Z,16.50
2022-10-18T02:13:56.758Z,16.40
2022-10-18T02:16:48.191Z,16.40
2022-10-18T02:19:39.027Z,16.30
2022-10-18T02:22:13.185Z,16.30
2022-10-18T02:24:50.120Z,16.30
2022-10-18T02:27:23.389Z,16.40
2022-10-18T02:29:55.968Z,16.40
2022-10-18T02:32:39.081Z,16.40
2022-10-18T02:35:19.931Z,16.40
2022-10-18T02:37:54.084Z,16.40
2022-10-18T02:40:27.370Z,16.30
2022-10-18T02:43:00.177Z,16.30
2022-10-18T02:45:34.098Z,16.30
2022-10-18T02:48:07.798Z,16.30
2022-10-18T02:50:40.323Z,16.20
2022-10-18T02:53:12.780Z,16.30
2022-10-18T02:55:45.198Z,16.20
2022-10-18T02:58:17.634Z,16.20
2022-10-18T03:00:51.271Z,16.30
2022-10-18T03:03:23.890Z,16.30
2022-10-18T03:05:56.435Z,16.40
2022-10-18T03:08:28.951Z,16.40
2022-10-18T03:11:01.590Z,16.40
2022-10-18T03:13:34.524Z,16.40
2022-10-18T03:16:07.230Z,16.50
2022-10-18T03:18:39.783Z,16.50
2022-10-18T03:21:12.227Z,16.60
2022-10-18T03:23:45.020Z,16.50
2022-10-18T03:26:17.612Z,16.60
2022-10-18T03:28:50.390Z,16.60
2022-10-18T03:31:22.984Z,16.50
2022-10-18T03:33:55.525Z,16.60
2022-10-18T03:36:28.158Z,16.60
2022-10-18T03:39:01.361Z,16.60
2022-10-18T03:41:34.287Z,16.50
2022-10-18T03:44:06.820Z,16.50
2022-10-18T03:46:39.370Z,16.50
2022-10-18T03:49:12.060Z,16.40
2022-10-18T03:51:44.528Z,16.30
2022-10-18T03:54:17.141Z,16.30
2022-10-18T03:56:49.549Z,16.20
2022-10-18T03:59:23.337Z,16.20
2022-10-18T04:01:55.937Z,16.10
2022-10-18T04:04:28.539Z,16.10
2022-10-18T04:07:01.307Z,16.10
2022-10-18T04:09:33.917Z,16.00
2022-10-18T04:12:06.781Z,16.00
2022-10-18T04:14:39.303Z,16.00
2022-10-18T04:17:12.596Z,15.90
2022-10-18T04:19:45.151Z,16.00
2022-10-18T04:22:17.810Z,15.90
2022-10-18T04:24:50.786Z,15.90
2022-10-18T04:27:23.522Z,15.90
2022-10-18T04:29:56.190Z,15.90
2022-10-18T04:32:29.836Z,15.90
2022-10-18T04:35:03.494Z,15.90
2022-10-18T04:37:36.106Z,15.90
2022-10-18T04:40:10.077Z,15.90
2022-10-18T04:42:42.511Z,16.00
2022-10-18T04:45:15.287Z,16.00
2022-10-18T04:47:47.912Z,16.10
2022-10-18T04:50:20.743Z,16.10
2022-10-18T04:52:53.778Z,16.10
2022-10-18T04:55:26.477Z,16.10
2022-10-18T04:57:58.916Z,16.10
2022-10-18T05:00:31.435Z,16.10
2022-10-18T05:03:04.170Z,16.20
2022-10-18T05:05:49.710Z,16.10
2022-10-18T05:08:30.739Z,16.20
2022-10-18T05:11:04.113Z,16.20
2022-10-18T05:13:38.528Z,16.20
2022-10-18T05:16:11.730Z,16.20
2022-10-18T05:18:44.290Z,16.20
2022-10-18T05:21:17.390Z,16.20
2022-10-18T05:23:49.987Z,16.20
2022-10-18T05:26:22.637Z,16.20
2022-10-18T05:28:55.562Z,16.20
2022-10-18T05:31:28.283Z,16.20
2022-10-18T05:34:02.249Z,16.20
2022-10-18T05:36:34.813Z,16.20
2022-10-18T05:39:07.558Z,16.20
2022-10-18T05:41:40.231Z,16.20
2022-10-18T05:44:12.710Z,16.20
2022-10-18T05:46:45.232Z,16.30
2022-10-18T05:49:17.818Z,16.30
2022-10-18T05:51:50.355Z,16.30
2022-10-18T05:54:23.345Z,16.30
2022-10-18T05:56:55.884Z,16.30
2022-10-18T05:59:28.435Z,16.30
2022-10-18T06:02:01.089Z,16.30
2022-10-18T06:04:35.103Z,16.30
2022-10-18T06:07:10.279Z,16.30
2022-10-18T06:09:42.789Z,16.30
2022-10-18T06:12:15.429Z,16.30
2022-10-18T06:14:49.629Z,16.30
2022-10-18T06:17:22.185Z,16.30
2022-10-18T06:19:54.672Z,16.40
2022-10-18T06:22:27.214Z,16.40
2022-10-18T06:24:59.715Z,16.40
2022-10-18T06:27:35.080Z,16.40
2022-10-18T06:30:08.832Z,16.40
2022-10-18T06:32:41.794Z,16.40
2022-10-18T06:35:14.465Z,16.50
2022-10-18T06:37:47.046Z,16.50
2022-10-18T06:40:19.654Z,16.60
2022-10-18T06:43:00.630Z,16.60
2022-10-18T06:45:39.430Z,16.70
2022-10-18T06:48:11.956Z,16.60
2022-10-18T06:50:57.175Z,16.70
2022-10-18T06:53:32.477Z,16.70
2022-10-18T06:56:08.444Z,16.80
2022-10-18T06:58:41.331Z,16.80
2022-10-18T07:01:16.371Z,16.80
2022-10-18T07:03:52.565Z,16.90
2022-10-18T07:06:25.780Z,16.90
2022-10-18T07:08:58.337Z,17.00
2022-10-18T07:11:30.878Z,17.00
2022-10-18T07:14:05.207Z,17.10
2022-10-18T07:16:37.675Z,17.10
2022-10-18T07:19:10.232Z,17.20
2022-10-18T07:21:42.817Z,17.20
2022-10-18T07:24:15.407Z,17.20
2022-10-18T07:26:48.030Z,17.30
2022-10-18T07:29:20.780Z,17.30
2022-10-18T07:31:53.489Z,17.40
2022-10-18T07:34:26.184Z,17.50
2022-10-18T07:36:58.631Z,17.50
2022-10-18T07:39:31.591Z,17.60
2022-10-18T07:42:04.267Z,17.60
2022-10-18T07:44:36.890Z,17.70
2022-10-18T07:47:09.683Z,17.70
2022-10-18T07:49:43.003Z,17.80
2022-10-18T07:52:15.740Z,17.90
2022-10-18T07:57:26.053Z,18.00
2022-10-18T07:59:59.326Z,18.10
2022-10-18T08:02:32.131Z,18.10
2022-10-18T08:05:05.154Z,18.20
2022-10-18T08:07:38.108Z,18.30
2022-10-18T08:10:11.076Z,18.30
2022-10-18T08:12:43.588Z,18.40
2022-10-18T08:15:16.283Z,18.50
2022-10-18T08:17:48.837Z,18.60
2022-10-18T08:20:30.434Z,18.60
2022-10-18T08:23:05.173Z,18.70
2022-10-18T08:25:37.987Z,18.80
2022-10-18T08:28:10.712Z,18.80
2022-10-18T08:30:43.377Z,18.90
2022-10-18T08:33:15.886Z,19.00
2022-10-18T08:35:57.199Z,19.00
2022-10-18T08:38:31.669Z,19.10
2022-10-18T08:41:22.727Z,19.10
2022-10-18T08:44:03.347Z,19.20
2022-10-18T08:46:45.660Z,19.30
2022-10-18T08:49:29.283Z,19.30
2022-10-18T08:52:11.331Z,19.40
2022-10-18T08:54:59.692Z,19.40
2022-10-18T08:57:33.424Z,19.50
2022-10-18T09:00:16.379Z,19.60
2022-10-18T09:02:49.614Z,19.60
2022-10-18T09:05:26.278Z,19.70
2022-10-18T09:08:12.022Z,19.70
2022-10-18T09:14:05.912Z,19.80
2022-10-18T09:16:56.420Z,19.90
2022-10-18T09:19:43.833Z,19.90
2022-10-18T09:22:19.609Z,20.00
2022-10-18T09:25:23.552Z,20.00
2022-10-18T09:28:07.766Z,20.10
2022-10-18T09:30:47.215Z,20.20
2022-10-18T09:33:32.464Z,20.20
2022-10-18T09:36:09.499Z,20.30
2022-10-18T09:39:01.380Z,20.40
2022-10-18T09:41:41.770Z,20.40
2022-10-18T09:44:22.414Z,20.40
2022-10-18T09:47:03.335Z,20.50
2022-10-18T09:49:43.532Z,20.60
2022-10-18T09:52:21.590Z,20.60
2022-10-18T09:55:01.445Z,20.70
2022-10-18T09:57:44.416Z,20.70
2022-10-18T10:00:25.223Z,20.80
2022-10-18T10:02:59.386Z,20.90
2022-10-18T10:05:31.851Z,20.90
2022-10-18T10:08:05.092Z,20.90
2022-10-18T10:10:41.047Z,21.00
2022-10-18T10:13:23.830Z,21.00
2022-10-18T10:16:02.223Z,21.20
2022-10-18T10:18:38.606Z,21.10
2022-10-18T10:21:16.323Z,21.20
2022-10-18T10:23:57.318Z,21.20
2022-10-18T10:26:34.546Z,21.20
2022-10-18T10:29:44.758Z,21.20
2022-10-18T10:32:20.966Z,21.30
2022-10-18T10:34:54.183Z,21.40
2022-10-18T10:37:31.294Z,21.50
2022-10-18T10:40:20.465Z,21.50
2022-10-18T10:43:19.589Z,21.60
2022-10-18T10:46:09.438Z,21.70
2022-10-18T10:49:21.797Z,21.70
2022-10-18T10:52:08.428Z,21.70
2022-10-18T10:54:51.979Z,21.80
2022-10-18T10:57:28.652Z,21.90
2022-10-18T11:00:02.177Z,21.90
2022-10-18T11:02:37.318Z,21.90
2022-10-18T11:05:24.843Z,21.90
2022-10-18T11:08:02.606Z,22.00
2022-10-18T11:10:48.005Z,22.00
2022-10-18T11:13:47.537Z,22.00
2022-10-18T11:16:34.383Z,22.10
2022-10-18T11:19:30.563Z,22.10
2022-10-18T11:22:10.035Z,22.10
2022-10-18T11:24:42.957Z,22.10
2022-10-18T11:27:36.371Z,22.20
2022-10-18T11:30:28.152Z,22.20
2022-10-18T11:33:01.460Z,22.30
2022-10-18T11:35:46.732Z,22.40
2022-10-18T11:38:27.880Z,22.40
2022-10-18T11:41:29.608Z,22.40
2022-10-18T11:44:10.319Z,22.40
2022-10-18T11:47:12.190Z,22.50
2022-10-18T11:50:00.491Z,22.50
2022-10-18T11:53:03.752Z,22.50
2022-10-18T11:55:37.266Z,22.50
2022-10-18T11:58:29.342Z,22.60
2022-10-18T12:01:24.600Z,22.60
2022-10-18T12:04:22.063Z,22.70
2022-10-18T12:06:56.781Z,22.60
2022-10-18T12:09:32.114Z,22.70
2022-10-18T12:12:19.773Z,22.70
2022-10-18T12:14:59.468Z,22.70
2022-10-18T12:17:46.162Z,22.70
2022-10-18T12:20:26.410Z,22.80
2022-10-18T12:23:03.934Z,22.90
2022-10-18T12:25:40.888Z,22.90
2022-10-18T12:28:23.262Z,22.90
2022-10-18T12:31:19.726Z,23.00
2022-10-18T12:33:57.254Z,23.10
2022-10-18T12:36:54.818Z,23.10
2022-10-18T12:39:43.450Z,23.10
2022-10-18T12:42:28.520Z,23.10
2022-10-18T12:45:18.241Z,23.10
2022-10-18T12:47:51.448Z,23.10
2022-10-18T12:50:32.028Z,23.10
2022-10-18T12:53:06.860Z,23.10
2022-10-18T12:58:26.836Z,23.10
2022-10-18T13:01:02.458Z,23.10
2022-10-18T13:03:42.024Z,23.10
2022-10-18T13:06:14.568Z,23.10
2022-10-18T13:08:48.497Z,23.20
2022-10-18T13:11:31.435Z,23.20
2022-10-18T13:14:19.919Z,23.10
2022-10-18T13:16:54.457Z,23.10
2022-10-18T13:19:27.789Z,23.10
2022-10-18T13:22:13.877Z,23.10
2022-10-18T13:25:12.004Z,23.20
2022-10-18T13:27:56.672Z,23.20
2022-10-18T13:30:42.547Z,23.20
2022-10-18T13:33:28.165Z,23.20
2022-10-18T13:36:22.966Z,23.30
2022-10-18T13:38:57.986Z,23.20
2022-10-18T13:41:56.664Z,23.20
2022-10-18T13:44:34.561Z,23.20
2022-10-18T13:47:08.185Z,23.20
2022-10-18T13:49:44.593Z,23.20
2022-10-18T13:52:46.189Z,23.20
2022-10-18T13:55:42.576Z,23.20
2022-10-18T13:58:19.091Z,23.30
2022-10-18T14:01:22.796Z,23.20
2022-10-18T14:04:12.968Z,23.20
2022-10-18T14:06:48.289Z,23.20
2022-10-18T14:09:32.796Z,23.10
2022-10-18T14:12:41.336Z,23.10
2022-10-18T14:15:23.677Z,23.10
2022-10-18T14:18:05.175Z,23.10
2022-10-18T14:20:55.136Z,22.50
2022-10-18T14:23:41.413Z,23.00
2022-10-18T14:26:20.089Z,23.00
2022-10-18T14:29:16.834Z,22.90
2022-10-18T14:31:54.585Z,22.90
2022-10-18T14:34:27.110Z,22.90
2022-10-18T14:36:59.759Z,22.90
2022-10-18T14:39:33.773Z,22.90
2022-10-18T14:42:19.735Z,22.90
2022-10-18T14:44:55.687Z,22.90
2022-10-18T14:47:34.068Z,22.80
2022-10-18T14:50:22.688Z,22.80
2022-10-18T14:52:55.370Z,22.70
2022-10-18T14:55:29.119Z,22.70
2022-10-18T14:58:02.647Z,22.70
2022-10-18T15:00:37.676Z,22.70
2022-10-18T15:03:15.261Z,22.60
2022-10-18T15:05:59.743Z,22.60
2022-10-18T15:08:40.295Z,22.60
2022-10-18T15:11:15.091Z,22.50
2022-10-18T15:13:53.988Z,22.50
2022-10-18T15:16:31.081Z,22.40
2022-10-18T15:19:19.300Z,22.40
2022-10-18T15:22:03.202Z,22.40
2022-10-18T15:25:07.642Z,22.40
2022-10-18T15:30:23.262Z,22.30
2022-10-18T15:32:59.149Z,22.20
2022-10-18T15:35:35.242Z,22.20
2022-10-18T15:38:27.436Z,22.20
2022-10-18T15:41:00.003Z,22.10
2022-10-18T15:43:34.906Z,22.10
2022-10-18T15:46:27.481Z,22.00
2022-10-18T15:49:39.833Z,22.00
2022-10-18T15:52:35.246Z,21.90
2022-10-18T15:55:31.099Z,21.80
2022-10-18T15:58:06.053Z,21.80
2022-10-18T16:00:39.201Z,21.70
2022-10-18T16:03:13.091Z,21.60
2022-10-18T16:05:45.904Z,21.50
2022-10-18T16:08:21.048Z,21.50
2022-10-18T16:10:53.651Z,21.40
2022-10-18T16:13:27.623Z,21.30
2022-10-18T16:16:00.364Z,21.20
2022-10-18T16:18:34.309Z,21.20
2022-10-18T16:21:16.398Z,21.10
2022-10-18T16:23:49.643Z,21.00
2022-10-18T16:26:23.209Z,21.00
2022-10-18T16:28:57.483Z,20.90
2022-10-18T16:31:34.630Z,20.80
2022-10-18T16:34:11.385Z,20.70
2022-10-18T16:36:44.012Z,20.70
2022-10-18T16:39:19.698Z,20.60
2022-10-18T16:41:52.463Z,20.50
2022-10-18T16:44:25.749Z,20.50
2022-10-18T16:46:58.572Z,20.40
2022-10-18T16:49:31.973Z,20.30
2022-10-18T16:52:04.889Z,20.30
2022-10-18T16:54:37.424Z,20.20
2022-10-18T16:57:13.106Z,20.20
2022-10-18T16:59:45.907Z,20.10
2022-10-18T17:02:18.420Z,20.10
2022-10-18T17:04:51.264Z,20.00
2022-10-18T17:07:25.489Z,19.90
2022-10-18T17:09:58.197Z,19.90
2022-10-18T17:12:30.793Z,19.80
2022-10-18T17:15:03.991Z,19.80
2022-10-18T17:17:37.434Z,19.70
2022-10-18T17:20:18.824Z,19.70
2022-10-18T17:22:51.405Z,19.60
2022-10-18T17:25:24.146Z,19.60
2022-10-18T17:27:56.880Z,19.50
2022-10-18T17:30:29.662Z,19.50
2022-10-18T17:33:02.637Z,19.40
2022-10-18T17:35:35.401Z,19.40
2022-10-18T17:38:08.376Z,19.40
2022-10-18T17:40:42.764Z,19.30
2022-10-18T17:43:15.373Z,19.30
2022-10-18T17:45:51.512Z,19.30
2022-10-18T17:48:24.790Z,19.30
2022-10-18T17:50:57.553Z,19.20
2022-10-18T17:53:31.105Z,19.10
2022-10-18T17:56:05.309Z,19.10
2022-10-18T17:58:38.024Z,19.00
2022-10-18T18:01:13.161Z,18.90
2022-10-18T18:03:47.906Z,18.90
2022-10-18T18:06:23.594Z,18.90
2022-10-18T18:08:56.561Z,18.80
2022-10-18T18:11:29.713Z,18.80
2022-10-18T18:14:02.882Z,18.80
2022-10-18T18:16:37.240Z,18.80
2022-10-18T18:19:11.310Z,18.80
2022-10-18T18:21:44.008Z,18.80
2022-10-18T18:24:17.920Z,18.70
2022-10-18T18:26:53.418Z,18.60
2022-10-18T18:29:28.040Z,18.60
2022-10-18T18:32:01.076Z,18.50
2022-10-18T18:34:34.337Z,18.50
2022-10-18T18:37:08.746Z,18.50
2022-10-18T18:39:41.364Z,18.50
2022-10-18T18:42:15.047Z,18.40
2022-10-18T18:44:47.795Z,18.40
2022-10-18T18:47:23.709Z,18.40
2022-10-18T18:49:56.486Z,18.40
2022-10-18T18:52:29.901Z,18.40
2022-10-18T18:55:02.560Z,18.40
2022-10-18T18:57:35.287Z,18.40
2022-10-18T19:00:10.687Z,18.40
2022-10-18T19:02:43.355Z,18.40
2022-10-18T19:05:15.990Z,18.30
2022-10-18T19:07:48.858Z,18.30
2022-10-18T19:10:21.584Z,18.20
2022-10-18T19:12:54.696Z,18.20
2022-10-18T19:15:27.449Z,18.30
2022-10-18T19:18:00.152Z,18.20
2022-10-18T19:20:32.730Z,18.20
2022-10-18T19:23:05.477Z,18.10
2022-10-18T19:25:38.254Z,18.10
2022-10-18T19:28:11.378Z,18.10
2022-10-18T19:30:49.217Z,18.10
2022-10-18T19:33:41.077Z,18.00
2022-10-18T19:36:15.795Z,18.00
2022-10-18T19:38:48.361Z,18.00
2022-10-18T19:41:21.694Z,18.00
2022-10-18T19:43:54.701Z,18.00
2022-10-18T19:46:27.649Z,18.00
2022-10-18T19:49:00.348Z,18.00
2022-10-18T19:51:33.317Z,18.00
2022-10-18T19:54:06.552Z,18.00
2022-10-18T19:56:42.029Z,17.90
2022-10-18T19:59:16.015Z,18.00
2022-10-18T20:01:48.724Z,17.90
2022-10-18T20:04:22.242Z,17.90
2022-10-18T20:06:54.994Z,17.90
2022-10-18T20:09:29.548Z,17.90
2022-10-18T20:12:02.304Z,17.90
2022-10-18T20:14:35.758Z,17.90
2022-10-18T20:17:12.266Z,17.90
2022-10-18T20:19:45.848Z,17.90
2022-10-18T20:22:18.570Z,17.80
2022-10-18T20:24:51.319Z,17.80
2022-10-18T20:27:24.169Z,17.70
2022-10-18T20:29:57.979Z,17.70
2022-10-18T20:32:30.705Z,17.70
2022-10-18T20:35:04.521Z,17.70
2022-10-18T20:37:37.508Z,17.70
2022-10-18T20:40:11.857Z,17.70
2022-10-18T20:42:44.529Z,17.70
2022-10-18T20:45:17.497Z,17.70
2022-10-18T20:47:50.233Z,17.70
2022-10-18T20:50:22.977Z,17.70
2022-10-18T20:52:55.559Z,17.60
2022-10-18T20:55:29.760Z,17.60
2022-10-18T20:58:02.274Z,17.60
2022-10-18T21:00:35.497Z,17.50
2022-10-18T21:03:08.250Z,17.50
2022-10-18T21:05:41.006Z,17.50
2022-10-18T21:08:15.959Z,17.50
2022-10-18T21:10:48.768Z,17.50
2022-10-18T21:13:21.422Z,17.50
2022-10-18T21:15:55.566Z,17.50
2022-10-18T21:18:30.618Z,17.50
2022-10-18T21:21:17.072Z,17.50
2022-10-18T21:23:50.768Z,17.50
2022-10-18T21:26:26.259Z,17.50
2022-10-18T21:28:59.197Z,17.50
2022-10-18T21:31:35.341Z,17.50
2022-10-18T21:34:15.473Z,17.40
2022-10-18T21:36:51.903Z,17.40
2022-10-18T21:42:02.489Z,17.30
2022-10-18T21:44:35.365Z,17.30
2022-10-18T21:47:07.967Z,17.30
2022-10-18T21:49:40.655Z,17.30
2022-10-18T21:52:13.313Z,17.20
2022-10-18T21:54:46.014Z,17.20
2022-10-18T21:57:18.603Z,17.20
2022-10-18T21:59:51.111Z,17.20
2022-10-18T22:02:23.694Z,17.20
2022-10-18T22:04:56.464Z,17.20
2022-10-18T22:07:29.133Z,17.20
2022-10-18T22:10:01.748Z,17.10
2022-10-18T22:12:34.342Z,17.10
2022-10-18T22:15:07.490Z,17.10
2022-10-18T22:17:40.074Z,17.10
2022-10-18T22:20:12.992Z,17.10
2022-10-18T22:22:45.806Z,17.10
2022-10-18T22:25:18.409Z,17.10
2022-10-18T22:27:51.068Z,17.00
2022-10-18T22:30:23.627Z,17.00
2022-10-18T22:32:56.335Z,17.00
2022-10-18T22:35:28.870Z,17.00
2022-10-18T22:38:01.449Z,17.10
2022-10-18T22:40:33.962Z,17.20
2022-10-18T22:43:06.498Z,17.20
2022-10-18T22:45:39.949Z,17.30
2022-10-18T22:48:12.674Z,17.40
2022-10-18T22:50:45.316Z,17.50
2022-10-18T22:53:17.857Z,17.50
2022-10-18T22:55:51.377Z,17.50
2022-10-18T22:58:24.120Z,17.50
2022-10-18T23:01:07.319Z,17.60
2022-10-18T23:03:40.349Z,17.60
2022-10-18T23:06:21.963Z,17.60
2022-10-18T23:08:56.830Z,17.60
2022-10-18T23:11:29.779Z,17.60
2022-10-18T23:14:04.024Z,17.60
2022-10-18T23:16:36.626Z,17.60
2022-10-18T23:19:15.888Z,17.60
2022-10-18T23:21:48.489Z,17.60
2022-10-18T23:24:21.084Z,17.60
2022-10-18T23:26:53.791Z,17.70
2022-10-18T23:29:26.507Z,17.70
2022-10-18T23:31:59.116Z,17.70
2022-10-18T23:34:31.751Z,17.70
2022-10-18T23:37:04.454Z,17.70
2022-10-18T23:39:37.057Z,17.60
2022-10-18T23:42:09.641Z,17.60
2022-10-18T23:44:42.186Z,17.70
2022-10-18T23:47:15.968Z,17.60
2022-10-18T23:49:48.716Z,17.60
2022-10-18T23:52:21.502Z,17.60
2022-10-18T23:54:54.253Z,17.60
2022-10-18T23:57:26.922Z,17.60
